Aérodrome :
LOGIN :

S'inscrire | Disclaimer

   EN    FR    IT 

 










Légende :    VFR   VFR Marginal   IFR   IFR Intensif   IFR Très Intensif
Visi : 
Plafond : 
>= 8 km
>= 3000ft
5 à 8 km
1000 à 3000 ft
1500m à 5 km
500 à 1000 ft
800 à 1500m
200 à 500 ft
< 800m
< 200 ft
Symboles :   Orages  Brouillard  Fortes neiges  Fortes précipitations  Vent > 20 kt
SIGMETs :   Divers  Orages  Givrage  Turbulence  Onde Orograph.  Cendres Volcan.







- Altitude de l'aérodrome : 274 ft
- Code IATA : PUY


LDPL - Pula

DERNIER METAR :
  • 200130Z 06015KT 9999 SCT058 20/17 Q1013 NOSIG

METARs EXPIRÉS :
  • 200100Z 06014KT 9999 SCT058 20/18 Q1014 NOSIG
  • 200030Z 04011KT 9999 FEW013 SCT040 BKN058 20/18 Q1014 RETS NOSIG
  • 200000Z 02008KT 340V050 9999 VCTS FEW013 FEW025CB SCT040 BKN058 20/18 Q1014 TEMPO 28015KT TSRA
  • 192330Z 02013G23KT 310V050 9999 VCTS FEW013 FEW025CB SCT047 22/17 Q1014 TEMPO TSRA
  • 192300Z 09011KT 070V140 9999 VCSH FEW030TCU SCT057 21/18 Q1012 TEMPO 32015KT TSRA FEW030CB

TAF TAF LDPL
Valide du 20 à 00h jusqu'au 21 à 00h UTC


192325Z 2000/2024 09008KT 9999 BKN040 TX24/2015Z TN16/2003Z
BECMG 2000/2002 06015G25KT
TEMPO 2000/2004 TSRA SCT020CB BKN040
PROB30
TEMPO 2000/2002 33020G30KT 3000 +TSRA BKN020CB
BECMG 2008/2010 06010KT
Pas de NOTAMs connus pour ce terrain.
1 SIGMET publié pour la FIR Zagreb (LDZO) :
 
Orages noyés dans la masse
LDZO SIGMET 1 VALID 200030/200230 LDZA
LDZO ZAGREB FIR EMBD TS OBS WI N4613 E01550 - N4551 E01649 - N4510 E01607 - N4337 E01646 - N4305 E01551 - N4433 E01329 - N4532 E01326 - N4613 E01550 TOP FL360 MOV NE 10KT NC=



MET'MAP, la Météo Aéronautique d'un coup d'oeil ! - Copyright ORBIFLY Décembre 2007 - Disclaimer

ORBIFLY MET'MAP TEAM :

Programmation & Développement : Alexandra Zaïnal
Conception & Développement : Baudouin d'Aumeries
Co-Programmation & Développement : Marc-Olivier Méhu
Soutien technique & logistique : Manuel Goepfert

Contact : metmap@orbifly.com




SOURCES & CREDITS :

   NOAA